Time;durP1;ratioP1;P1;durP2;ratioP2;P2;SDS_P1;SDS_P2;PMS_P1;PMS_P2;Temp;Humidity;BMP_temperature;BMP_pressure;BME280_temperature;BME280_humidity;BME280_pressure;Samples;Min_cycle;Max_cycle;Signal;HPM_P1;HPM_P2
2024/02/14 00:01:36;;;;;;;4.33;3.60;;;9.00;99.90;;;;;;5097888;28;20185;-72
2024/02/14 00:04:02;;;;;;;5.77;3.53;;;9.00;99.90;;;;;;5098173;28;20542;-72
2024/02/14 00:06:28;;;;;;;4.10;3.50;;;9.00;99.90;;;;;;5087164;28;20181;-73
2024/02/14 00:08:54;;;;;;;3.60;3.30;;;9.00;99.90;;;;;;5077826;28;20186;-73
2024/02/14 00:11:19;;;;;;;5.33;3.00;;;9.00;99.90;;;;;;5077591;28;20186;-73
2024/02/14 00:13:45;;;;;;;3.70;3.50;;;9.00;99.90;;;;;;5078193;28;20224;-73
2024/02/14 00:16:10;;;;;;;3.90;3.60;;;9.00;99.90;;;;;;5077669;28;20170;-72
2024/02/14 00:18:36;;;;;;;3.60;3.30;;;9.10;99.90;;;;;;5078862;28;20174;-73
2024/02/14 00:21:01;;;;;;;3.70;3.40;;;9.10;99.90;;;;;;5077761;28;20194;-73
2024/02/14 00:23:27;;;;;;;4.10;3.80;;;9.20;99.90;;;;;;5077658;28;20170;-72
2024/02/14 00:25:53;;;;;;;3.43;3.23;;;9.20;99.90;;;;;;5077788;28;20170;-73
2024/02/14 00:28:19;;;;;;;5.57;3.40;;;9.30;99.90;;;;;;5077740;28;20178;-73
2024/02/14 00:30:44;;;;;;;4.23;3.10;;;9.30;99.90;;;;;;5098117;28;20751;-73
2024/02/14 00:33:10;;;;;;;3.80;3.50;;;9.30;99.90;;;;;;5097601;28;20638;-74
2024/02/14 00:35:35;;;;;;;4.33;3.57;;;9.30;99.90;;;;;;5098528;28;20176;-73
2024/02/14 00:38:01;;;;;;;3.40;3.20;;;9.30;99.90;;;;;;5097693;28;20638;-72
2024/02/14 00:40:26;;;;;;;3.73;3.43;;;9.40;99.90;;;;;;5097774;28;20225;-73
2024/02/14 00:42:52;;;;;;;3.63;3.30;;;9.30;99.90;;;;;;5097896;28;20706;-73
2024/02/14 00:45:18;;;;;;;4.20;3.60;;;9.40;99.90;;;;;;5078847;28;20178;-73
2024/02/14 00:47:43;;;;;;;3.60;3.40;;;9.40;99.90;;;;;;5088982;28;20550;-73
2024/02/14 00:50:09;;;;;;;3.53;3.33;;;9.40;99.90;;;;;;5097398;28;20204;-73
2024/02/14 00:52:35;;;;;;;3.50;3.10;;;9.50;99.90;;;;;;5097738;28;20183;-74
2024/02/14 00:55:03;;;;;;;3.53;3.23;;;9.50;99.90;;;;;;5095168;28;20189;-74
2024/02/14 00:57:29;;;;;;;3.80;3.50;;;9.50;99.90;;;;;;5094320;28;20610;-72
2024/02/14 00:59:56;;;;;;;4.27;3.87;;;9.60;99.90;;;;;;5094399;28;20207;-73
2024/02/14 01:02:22;;;;;;;3.90;3.63;;;9.60;99.90;;;;;;5083869;28;20181;-74
2024/02/14 01:04:48;;;;;;;3.33;3.13;;;9.60;99.90;;;;;;5074619;28;20538;-73
2024/02/14 01:07:13;;;;;;;3.77;3.47;;;9.60;99.90;;;;;;5073992;28;20592;-73
2024/02/14 01:09:39;;;;;;;4.70;3.27;;;9.60;99.90;;;;;;5074026;28;20289;-73
2024/02/14 01:12:04;;;;;;;3.03;2.87;;;9.70;99.90;;;;;;5073945;28;20190;-73
2024/02/14 01:14:31;;;;;;;3.30;3.10;;;9.70;99.90;;;;;;5075169;28;20162;-73
2024/02/14 01:16:57;;;;;;;3.30;3.03;;;9.70;99.90;;;;;;5095330;28;20170;-73
2024/02/14 01:19:23;;;;;;;6.20;3.00;;;9.70;99.90;;;;;;5074356;28;20166;-73
2024/02/14 01:21:49;;;;;;;3.87;3.50;;;9.70;99.90;;;;;;5073465;28;20217;-72
2024/02/14 01:24:16;;;;;;;3.50;3.30;;;9.70;99.90;;;;;;5073667;28;20240;-73
2024/02/14 01:26:41;;;;;;;3.20;3.00;;;9.70;99.90;;;;;;5073818;28;20166;-73
2024/02/14 01:29:07;;;;;;;3.40;3.10;;;9.70;99.90;;;;;;5073656;28;20194;-73
2024/02/14 01:31:34;;;;;;;3.23;3.03;;;9.70;99.90;;;;;;5073295;28;20555;-73
2024/02/14 01:34:01;;;;;;;3.60;3.10;;;9.70;99.90;;;;;;5094069;28;20204;-73
2024/02/14 01:36:30;;;;;;;3.13;2.93;;;9.70;99.90;;;;;;5093887;28;20173;-73
2024/02/14 01:38:56;;;;;;;3.30;3.10;;;9.70;99.90;;;;;;5094179;28;20174;-73
2024/02/14 01:41:22;;;;;;;3.40;3.20;;;9.70;99.90;;;;;;5083953;28;20589;-74
2024/02/14 01:43:48;;;;;;;3.57;3.23;;;9.70;99.90;;;;;;5073934;28;20404;-73
2024/02/14 01:46:15;;;;;;;3.40;3.10;;;9.70;99.90;;;;;;5073541;28;20181;-73
2024/02/14 01:48:42;;;;;;;4.03;3.60;;;9.80;99.90;;;;;;5073259;28;20170;-73
2024/02/14 01:51:10;;;;;;;3.40;3.20;;;9.80;99.90;;;;;;5073197;28;20188;-73
2024/02/14 01:53:38;;;;;;;3.43;3.23;;;9.80;99.90;;;;;;5073392;28;20242;-73
2024/02/14 01:56:04;;;;;;;3.20;3.00;;;9.80;99.90;;;;;;5074294;28;20197;-73
2024/02/14 01:58:30;;;;;;;3.30;3.13;;;9.90;99.90;;;;;;5072977;28;20194;-73
2024/02/14 02:00:58;;;;;;;3.43;3.20;;;9.90;99.90;;;;;;5072821;28;20257;-73
2024/02/14 02:03:24;;;;;;;3.50;3.30;;;9.90;99.90;;;;;;5072798;28;20166;-73
2024/02/14 02:05:51;;;;;;;3.70;3.50;;;9.90;99.90;;;;;;5072921;28;20577;-73
2024/02/14 02:08:16;;;;;;;3.57;3.40;;;9.90;99.90;;;;;;5073194;28;20170;-73
2024/02/14 02:10:42;;;;;;;3.80;3.60;;;9.90;99.90;;;;;;5092915;28;20254;-73
2024/02/14 02:13:09;;;;;;;3.93;3.70;;;9.90;99.90;;;;;;5092718;28;20177;-73
2024/02/14 02:15:35;;;;;;;3.70;3.50;;;9.90;99.90;;;;;;5074920;28;20703;-73
2024/02/14 02:18:04;;;;;;;4.00;3.70;;;10.00;99.90;;;;;;5074955;28;20177;-73
2024/02/14 02:20:31;;;;;;;3.70;3.50;;;10.00;99.90;;;;;;5074709;28;20266;-73
2024/02/14 02:22:57;;;;;;;3.60;3.40;;;10.00;99.90;;;;;;5078111;28;20236;-73
2024/02/14 02:25:24;;;;;;;4.10;3.80;;;10.00;99.90;;;;;;5054314;28;20178;-73
2024/02/14 02:27:50;;;;;;;3.47;3.27;;;10.00;99.90;;;;;;5072779;28;20162;-73
2024/02/14 02:30:15;;;;;;;3.50;3.30;;;9.90;99.90;;;;;;5072089;28;20610;-72
2024/02/14 02:32:42;;;;;;;3.30;3.10;;;9.90;99.90;;;;;;5072405;28;20182;-73
2024/02/14 02:35:09;;;;;;;3.63;3.43;;;9.90;99.90;;;;;;5072555;28;20531;-73
2024/02/14 02:37:35;;;;;;;3.33;3.03;;;10.00;99.90;;;;;;5085705;28;20173;-73
2024/02/14 02:40:00;;;;;;;3.40;3.10;;;9.90;99.90;;;;;;5093926;28;20182;-74
2024/02/14 02:42:26;;;;;;;2.97;2.80;;;10.00;99.90;;;;;;5095637;28;20170;-73
2024/02/14 02:44:52;;;;;;;3.17;2.97;;;10.00;99.90;;;;;;5092936;28;20162;-73
2024/02/14 02:47:17;;;;;;;3.17;2.97;;;10.00;99.90;;;;;;5092291;28;20174;-73
2024/02/14 02:49:44;;;;;;;3.20;3.00;;;10.00;99.90;;;;;;5092104;28;20202;-73
2024/02/14 02:52:10;;;;;;;3.40;3.20;;;9.90;99.90;;;;;;5079880;28;20540;-74
2024/02/14 02:54:36;;;;;;;4.23;3.93;;;9.90;99.90;;;;;;5071782;28;20288;-73
2024/02/14 02:57:03;;;;;;;5.77;5.17;;;10.00;99.90;;;;;;5088497;28;20252;-73
2024/02/14 02:59:29;;;;;;;5.53;5.03;;;10.00;99.90;;;;;;5092232;28;20177;-73
2024/02/14 03:01:55;;;;;;;3.50;3.30;;;10.00;99.90;;;;;;5091854;28;20638;-74
2024/02/14 03:04:21;;;;;;;4.60;4.20;;;10.00;99.90;;;;;;5089248;28;20177;-73
2024/02/14 03:06:47;;;;;;;4.80;4.37;;;10.00;99.90;;;;;;5072124;28;20173;-73
2024/02/14 03:09:14;;;;;;;6.50;4.67;;;10.00;99.90;;;;;;5071618;28;20265;-74
2024/02/14 03:11:40;;;;;;;12.33;7.30;;;10.00;99.90;;;;;;5071441;28;20723;-74
2024/02/14 03:14:07;;;;;;;14.50;8.27;;;10.00;99.90;;;;;;5071593;28;20159;-74
2024/02/14 03:16:33;;;;;;;9.20;6.03;;;10.00;99.90;;;;;;5071643;28;20212;-73
2024/02/14 03:18:59;;;;;;;11.50;6.83;;;10.00;99.90;;;;;;5072505;28;20166;-73
2024/02/14 03:21:25;;;;;;;20.30;10.23;;;10.10;99.90;;;;;;5091319;28;20694;-73
2024/02/14 03:23:50;;;;;;;7.20;4.70;;;10.10;99.90;;;;;;5091985;28;20169;-73
2024/02/14 03:26:16;;;;;;;4.10;3.80;;;10.10;99.90;;;;;;5091836;28;20169;-73
2024/02/14 03:28:41;;;;;;;5.27;4.50;;;10.10;99.90;;;;;;5091784;28;20173;-74
2024/02/14 03:31:07;;;;;;;4.00;3.70;;;10.20;99.90;;;;;;5081475;28;20322;-73
2024/02/14 03:33:32;;;;;;;4.07;3.70;;;10.20;99.90;;;;;;5071497;28;20181;-72
2024/02/14 03:35:58;;;;;;;3.43;3.23;;;10.20;99.90;;;;;;5071618;28;20170;-73
2024/02/14 03:38:28;;;;;;;3.77;3.53;;;10.20;99.90;;;;;;5071408;28;20245;-72
2024/02/14 03:40:54;;;;;;;5.40;5.00;;;10.30;99.90;;;;;;5071420;28;20275;-72
2024/02/14 03:43:19;;;;;;;3.63;3.43;;;10.30;99.90;;;;;;5072332;28;20175;-73
2024/02/14 03:45:46;;;;;;;3.67;3.40;;;10.30;99.90;;;;;;5091611;28;20533;-73
2024/02/14 03:48:12;;;;;;;3.80;3.60;;;10.30;99.90;;;;;;5091572;28;20165;-74
2024/02/14 03:50:41;;;;;;;3.90;3.70;;;10.30;99.90;;;;;;5091451;28;20201;-72
2024/02/14 03:53:07;;;;;;;4.17;3.47;;;10.30;99.90;;;;;;5091374;28;20164;-73
2024/02/14 03:55:33;;;;;;;4.80;3.67;;;10.30;99.90;;;;;;5091424;28;20181;-72
2024/02/14 03:57:58;;;;;;;4.03;3.67;;;10.30;99.90;;;;;;5091144;28;20173;-73
2024/02/14 04:00:24;;;;;;;4.10;3.50;;;10.30;99.90;;;;;;5071242;28;20240;-73
2024/02/14 04:02:58;;;;;;;3.70;3.40;;;10.30;99.90;;;;;;5054222;28;20219;-72
2024/02/14 04:05:24;;;;;;;5.97;4.07;;;10.30;99.90;;;;;;5075367;28;20699;-72
2024/02/14 04:07:52;;;;;;;4.40;4.03;;;10.30;99.90;;;;;;5074497;28;20198;-72
2024/02/14 04:10:17;;;;;;;3.90;3.70;;;10.30;99.90;;;;;;5070855;28;20197;-72
2024/02/14 04:12:43;;;;;;;6.57;4.27;;;10.30;99.90;;;;;;5072123;28;20171;-72
2024/02/14 04:15:09;;;;;;;5.73;3.93;;;10.30;99.90;;;;;;5071295;28;20244;-72
2024/02/14 04:17:35;;;;;;;4.67;3.87;;;10.40;99.90;;;;;;5070983;28;20170;-74
2024/02/14 04:20:00;;;;;;;4.30;3.30;;;10.40;99.90;;;;;;5086667;28;20192;-73
2024/02/14 04:22:26;;;;;;;3.63;3.30;;;10.40;99.90;;;;;;5090823;28;20177;-73
2024/02/14 04:24:51;;;;;;;3.77;3.50;;;10.40;99.90;;;;;;5091462;28;20260;-73
2024/02/14 04:27:17;;;;;;;5.10;4.67;;;10.40;99.90;;;;;;5091432;28;20665;-73
2024/02/14 04:29:47;;;;;;;3.93;3.53;;;10.40;99.90;;;;;;5073337;28;20197;-73
2024/02/14 04:32:13;;;;;;;3.77;3.47;;;10.40;99.90;;;;;;5095376;28;20674;-74
2024/02/14 04:34:39;;;;;;;3.90;3.50;;;10.40;99.90;;;;;;5075256;28;20265;-72
2024/02/14 04:37:10;;;;;;;3.83;3.00;;;10.30;99.90;;;;;;5074878;28;20527;-73
2024/02/14 04:39:36;;;;;;;6.80;3.40;;;10.30;99.90;;;;;;5074338;28;20224;-73
2024/02/14 04:42:02;;;;;;;3.47;3.20;;;10.40;99.90;;;;;;5089877;28;20629;-73
2024/02/14 04:44:28;;;;;;;7.77;3.50;;;10.30;99.90;;;;;;5094763;28;20161;-73
2024/02/14 04:46:54;;;;;;;4.43;3.37;;;10.20;99.90;;;;;;5093805;28;20260;-73
2024/02/14 04:49:19;;;;;;;4.33;3.80;;;10.20;99.90;;;;;;5093849;28;20277;-73
2024/02/14 04:51:45;;;;;;;3.63;3.33;;;10.10;99.90;;;;;;5093314;28;20185;-73
2024/02/14 04:54:11;;;;;;;3.87;3.07;;;10.10;99.90;;;;;;5093719;28;20180;-73
2024/02/14 04:56:36;;;;;;;3.63;3.40;;;10.10;99.90;;;;;;5091972;28;20223;-73
2024/02/14 04:59:02;;;;;;;3.67;3.40;;;10.20;99.90;;;;;;5075414;28;20261;-73
2024/02/14 05:01:28;;;;;;;3.57;3.27;;;10.20;99.90;;;;;;5074914;28;20190;-73
2024/02/14 05:03:54;;;;;;;3.70;3.40;;;10.20;99.90;;;;;;5094459;28;20177;-74
2024/02/14 05:06:20;;;;;;;4.70;3.20;;;10.30;99.90;;;;;;5085973;28;20178;-73
2024/02/14 05:08:45;;;;;;;3.70;3.40;;;10.30;99.90;;;;;;5078983;28;20448;-73
2024/02/14 05:11:11;;;;;;;3.73;3.23;;;10.30;99.90;;;;;;5094127;28;20185;-74
2024/02/14 05:13:37;;;;;;;3.77;3.57;;;10.30;99.90;;;;;;5094322;28;20184;-73
2024/02/14 05:16:04;;;;;;;5.83;3.57;;;10.40;99.90;;;;;;5094346;28;20516;-73
2024/02/14 05:18:30;;;;;;;3.40;3.20;;;10.40;99.90;;;;;;5093914;28;20174;-73
2024/02/14 05:20:56;;;;;;;3.10;2.90;;;10.40;99.90;;;;;;5083813;28;20198;-72
2024/02/14 05:23:21;;;;;;;3.87;3.50;;;10.40;99.90;;;;;;5073814;28;20182;-72
2024/02/14 05:25:48;;;;;;;3.93;3.60;;;10.30;99.90;;;;;;5073732;28;20695;-72
2024/02/14 05:28:14;;;;;;;3.80;3.50;;;10.10;99.90;;;;;;5074103;28;20170;-75
2024/02/14 05:30:40;;;;;;;3.70;3.47;;;10.10;99.90;;;;;;5074923;28;20247;-73
2024/02/14 05:33:06;;;;;;;4.50;4.10;;;10.00;99.90;;;;;;5075687;28;20224;-72
2024/02/14 05:35:32;;;;;;;4.33;3.93;;;9.90;99.90;;;;;;5074189;28;20659;-73
2024/02/14 05:37:57;;;;;;;3.73;3.50;;;9.90;99.90;;;;;;5073865;28;20170;-73
2024/02/14 05:40:24;;;;;;;3.77;3.47;;;9.90;99.90;;;;;;5073304;28;20190;-73
2024/02/14 05:42:51;;;;;;;4.07;3.77;;;10.00;99.90;;;;;;5073992;28;20205;-73
2024/02/14 05:45:16;;;;;;;4.97;4.40;;;10.00;99.90;;;;;;5093663;28;20264;-72
2024/02/14 05:47:43;;;;;;;3.77;3.50;;;10.00;99.90;;;;;;5075268;28;20181;-73
2024/02/14 05:50:08;;;;;;;3.87;3.63;;;10.00;99.90;;;;;;5093523;28;20589;-72
2024/02/14 05:52:34;;;;;;;4.07;3.80;;;10.10;99.90;;;;;;5075125;28;20260;-72
2024/02/14 05:55:00;;;;;;;4.23;3.97;;;10.10;99.90;;;;;;5093561;28;20252;-72
2024/02/14 05:57:26;;;;;;;3.90;3.60;;;10.00;99.90;;;;;;5075976;28;20170;-73
2024/02/14 05:59:52;;;;;;;4.50;4.13;;;10.00;99.90;;;;;;5072738;28;20178;-73
2024/02/14 06:02:17;;;;;;;4.07;3.87;;;10.10;99.90;;;;;;5072922;28;20174;-73
2024/02/14 06:04:43;;;;;;;4.03;3.83;;;10.10;99.90;;;;;;5072975;28;20260;-73
2024/02/14 06:07:11;;;;;;;4.00;3.80;;;10.10;99.90;;;;;;5073304;28;20227;-72
2024/02/14 06:09:36;;;;;;;3.93;3.63;;;10.10;99.90;;;;;;5081236;28;20205;-72
2024/02/14 06:12:02;;;;;;;4.23;3.70;;;10.10;99.90;;;;;;5094138;28;20193;-72
2024/02/14 06:14:30;;;;;;;3.60;3.30;;;10.10;99.90;;;;;;5094789;28;20177;-73
2024/02/14 06:16:56;;;;;;;4.00;3.70;;;10.10;99.90;;;;;;5076049;28;20642;-74
2024/02/14 06:19:22;;;;;;;3.50;3.30;;;10.10;99.90;;;;;;5077203;28;20212;-74
2024/02/14 06:21:48;;;;;;;4.00;3.70;;;10.10;99.90;;;;;;5077816;28;20249;-75
2024/02/14 06:24:13;;;;;;;4.10;3.80;;;10.20;99.90;;;;;;5074607;28;20209;-74
2024/02/14 06:26:39;;;;;;;4.20;3.90;;;10.20;99.90;;;;;;5072999;28;20256;-73
2024/02/14 06:29:05;;;;;;;3.57;3.37;;;10.20;99.90;;;;;;5078024;28;20202;-74
2024/02/14 06:31:30;;;;;;;4.20;3.80;;;10.30;99.90;;;;;;5090853;28;20198;-73
2024/02/14 06:33:56;;;;;;;5.60;3.90;;;10.30;99.90;;;;;;5094575;28;20665;-73
2024/02/14 06:36:22;;;;;;;4.63;4.23;;;10.30;99.90;;;;;;5093424;28;20162;-73
2024/02/14 06:38:47;;;;;;;4.00;3.67;;;10.30;99.90;;;;;;5074918;28;20665;-75
2024/02/14 06:41:13;;;;;;;3.60;3.40;;;10.40;99.90;;;;;;5073324;28;20213;-73
2024/02/14 06:43:39;;;;;;;4.03;3.73;;;10.40;99.90;;;;;;5075044;28;20201;-74
2024/02/14 06:46:07;;;;;;;3.90;3.60;;;10.50;99.90;;;;;;5073635;28;20293;-73
2024/02/14 06:48:33;;;;;;;3.80;3.50;;;10.50;99.90;;;;;;5072093;28;20166;-73
2024/02/14 06:50:59;;;;;;;4.10;3.70;;;10.50;99.90;;;;;;5074136;28;20253;-74
2024/02/14 06:53:25;;;;;;;3.70;3.40;;;10.60;99.90;;;;;;5075531;28;20269;-72
2024/02/14 06:55:50;;;;;;;3.43;3.23;;;10.60;99.90;;;;;;5073611;28;20221;-73
2024/02/14 06:58:16;;;;;;;3.77;3.40;;;10.60;99.90;;;;;;5077833;28;20166;-74
2024/02/14 07:00:42;;;;;;;3.70;3.40;;;10.60;99.90;;;;;;5094139;28;20579;-72
2024/02/14 07:03:07;;;;;;;3.63;3.33;;;10.70;99.90;;;;;;5091900;28;20173;-72
2024/02/14 07:05:33;;;;;;;3.73;3.43;;;10.70;99.90;;;;;;5083822;28;20193;-74
2024/02/14 07:07:58;;;;;;;5.77;3.50;;;10.70;99.90;;;;;;5072971;28;20624;-73
2024/02/14 07:10:24;;;;;;;3.67;3.40;;;10.80;99.90;;;;;;5072588;28;20209;-73
2024/02/14 07:12:49;;;;;;;3.33;3.13;;;10.80;99.90;;;;;;5072727;28;20174;-73
2024/02/14 07:15:16;;;;;;;3.40;3.20;;;10.80;99.90;;;;;;5073095;28;20200;-73
2024/02/14 07:17:42;;;;;;;3.87;3.57;;;10.80;99.90;;;;;;5072913;28;20174;-73
2024/02/14 07:20:09;;;;;;;3.40;3.20;;;10.80;99.90;;;;;;5079481;28;20579;-73
2024/02/14 07:22:35;;;;;;;3.43;3.23;;;10.80;99.90;;;;;;5092792;28;20233;-73
2024/02/14 07:25:01;;;;;;;3.23;3.03;;;10.80;99.90;;;;;;5093283;28;20614;-74
2024/02/14 07:27:27;;;;;;;3.23;3.03;;;10.80;99.90;;;;;;5092995;28;20638;-74
2024/02/14 07:29:53;;;;;;;3.50;3.20;;;10.80;99.90;;;;;;5092562;28;20209;-74
2024/02/14 07:32:19;;;;;;;4.30;3.20;;;10.80;99.90;;;;;;5092672;28;20174;-74
2024/02/14 07:34:44;;;;;;;4.00;3.17;;;10.80;99.90;;;;;;5074516;28;20213;-74
2024/02/14 07:37:10;;;;;;;3.10;2.90;;;10.80;99.90;;;;;;5073003;28;20170;-74
2024/02/14 07:39:35;;;;;;;3.33;3.13;;;10.90;99.90;;;;;;5076378;28;20215;-73
2024/02/14 07:42:02;;;;;;;3.60;3.20;;;10.90;99.90;;;;;;5092578;28;20189;-74
2024/02/14 07:44:28;;;;;;;3.60;3.37;;;10.80;99.90;;;;;;5092594;28;20170;-73
2024/02/14 07:46:54;;;;;;;3.70;3.40;;;10.80;99.90;;;;;;5092805;28;20593;-74
2024/02/14 07:49:19;;;;;;;3.80;3.60;;;10.80;99.90;;;;;;5075702;28;20285;-75
2024/02/14 07:51:45;;;;;;;3.70;3.40;;;10.80;99.90;;;;;;5072030;28;20190;-74
2024/02/14 07:54:11;;;;;;;4.60;3.20;;;10.80;99.90;;;;;;5071827;28;20538;-74
2024/02/14 07:56:37;;;;;;;3.83;3.53;;;10.80;99.90;;;;;;5072213;28;20174;-73
2024/02/14 07:59:03;;;;;;;3.53;3.30;;;10.90;99.90;;;;;;5081518;28;20181;-74
2024/02/14 08:01:30;;;;;;;3.67;3.20;;;11.00;99.90;;;;;;5084395;28;20288;-73
2024/02/14 08:03:55;;;;;;;3.37;3.17;;;11.00;99.90;;;;;;5073393;28;20193;-74
2024/02/14 08:06:21;;;;;;;3.80;3.50;;;11.10;99.90;;;;;;5076647;28;20182;-73
2024/02/14 08:08:51;;;;;;;3.60;3.30;;;11.00;99.90;;;;;;5076573;28;20638;-74
2024/02/14 08:11:17;;;;;;;3.37;3.10;;;11.10;99.90;;;;;;5093110;28;20654;-74
2024/02/14 08:13:43;;;;;;;3.57;3.37;;;11.20;99.90;;;;;;5095403;28;20177;-74
2024/02/14 08:16:09;;;;;;;4.67;3.53;;;11.20;99.90;;;;;;5077544;28;20170;-74
2024/02/14 08:18:35;;;;;;;3.23;3.03;;;11.20;99.90;;;;;;5096341;28;20199;-74
2024/02/14 08:21:00;;;;;;;3.23;3.03;;;11.30;99.90;;;;;;5096242;28;20194;-74
2024/02/14 08:23:26;;;;;;;3.10;2.90;;;11.30;99.90;;;;;;5095144;28;20219;-74
2024/02/14 08:25:52;;;;;;;3.13;2.93;;;11.40;99.90;;;;;;5078369;28;20182;-74
2024/02/14 08:28:18;;;;;;;3.53;3.23;;;11.50;99.90;;;;;;5074956;28;20178;-74
2024/02/14 08:30:44;;;;;;;3.80;3.03;;;11.60;99.90;;;;;;5092158;28;20208;-75
2024/02/14 08:33:10;;;;;;;3.60;3.40;;;11.70;99.90;;;;;;5094787;28;20235;-74
2024/02/14 08:35:36;;;;;;;3.40;3.10;;;11.80;99.90;;;;;;5094912;28;20172;-74
2024/02/14 08:38:02;;;;;;;3.50;3.20;;;11.90;99.90;;;;;;5095025;28;20849;-73
2024/02/14 08:40:28;;;;;;;3.20;2.90;;;12.00;99.90;;;;;;5094585;28;20217;-73
2024/02/14 08:42:53;;;;;;;3.50;3.23;;;12.00;99.90;;;;;;5094593;28;20177;-74
2024/02/14 08:45:19;;;;;;;3.50;3.20;;;12.00;99.90;;;;;;5078320;28;20647;-75
2024/02/14 08:47:45;;;;;;;3.20;3.00;;;12.00;99.90;;;;;;5074343;28;20181;-75
2024/02/14 08:50:10;;;;;;;3.27;3.00;;;12.00;99.90;;;;;;5074692;28;20202;-75
2024/02/14 08:52:37;;;;;;;3.37;3.17;;;12.00;99.90;;;;;;5074030;28;20249;-74
2024/02/14 08:55:05;;;;;;;4.43;3.20;;;12.10;99.90;;;;;;5075282;28;20201;-75
2024/02/14 08:57:31;;;;;;;3.30;3.00;;;12.10;99.90;;;;;;5076196;28;20223;-75
2024/02/14 08:59:57;;;;;;;5.27;3.10;;;12.20;99.90;;;;;;5076652;28;20643;-75
2024/02/14 09:02:23;;;;;;;3.30;3.10;;;12.20;99.90;;;;;;5077867;28;20348;-76
2024/02/14 09:04:49;;;;;;;3.50;3.20;;;12.30;99.90;;;;;;5098587;28;20543;-75
2024/02/14 09:07:15;;;;;;;3.57;3.27;;;12.30;99.90;;;;;;5098619;28;20180;-75
2024/02/14 09:09:41;;;;;;;6.73;3.03;;;12.40;99.90;;;;;;5096680;28;20274;-75
2024/02/14 09:12:07;;;;;;;3.20;2.90;;;12.50;99.90;;;;;;5097487;28;20181;-74
2024/02/14 09:14:33;;;;;;;3.50;2.80;;;12.70;99.90;;;;;;5078557;28;20174;-74
2024/02/14 09:16:58;;;;;;;2.97;2.77;;;12.80;99.90;;;;;;5076492;28;20233;-75
2024/02/14 09:19:25;;;;;;;4.60;2.60;;;12.90;99.90;;;;;;5076933;28;20189;-75
2024/02/14 09:21:51;;;;;;;2.90;2.63;;;12.90;99.90;;;;;;5074613;28;20205;-74
2024/02/14 09:24:16;;;;;;;3.77;2.60;;;13.00;99.90;;;;;;5071545;28;20177;-74
2024/02/14 09:26:43;;;;;;;3.10;2.63;;;13.00;99.90;;;;;;5093724;28;20177;-74
2024/02/14 09:29:10;;;;;;;2.93;2.73;;;13.10;99.90;;;;;;5093713;28;20695;-74
2024/02/14 09:31:36;;;;;;;2.80;2.60;;;13.20;99.90;;;;;;5093361;28;20189;-75
2024/02/14 09:34:02;;;;;;;3.67;2.90;;;13.30;99.90;;;;;;5093786;28;20667;-75
2024/02/14 09:36:28;;;;;;;2.73;2.53;;;13.50;99.90;;;;;;5093768;28;20625;-74
2024/02/14 09:38:55;;;;;;;3.03;2.73;;;13.60;99.90;;;;;;5078752;28;20185;-74
2024/02/14 09:41:20;;;;;;;3.07;2.87;;;13.70;99.90;;;;;;5073619;28;20201;-75
2024/02/14 09:43:46;;;;;;;3.03;2.73;;;13.70;99.90;;;;;;5073705;28;20167;-74
2024/02/14 09:46:15;;;;;;;3.00;2.80;;;13.70;99.90;;;;;;5073452;28;20167;-75
2024/02/14 09:48:45;;;;;;;4.00;3.13;;;13.80;99.90;;;;;;5085857;28;20571;-74
2024/02/14 09:51:12;;;;;;;5.13;3.20;;;13.60;99.90;;;;;;5093100;28;20292;-74
2024/02/14 09:53:39;;;;;;;3.00;2.80;;;13.60;99.90;;;;;;5078741;28;20803;-74
2024/02/14 09:56:06;;;;;;;3.00;2.80;;;13.60;99.90;;;;;;5073010;28;20198;-73
2024/02/14 09:58:32;;;;;;;3.60;3.03;;;13.50;99.90;;;;;;5072749;28;20553;-74
2024/02/14 10:00:58;;;;;;;3.87;3.10;;;13.40;99.90;;;;;;5072642;28;20395;-73
2024/02/14 10:03:24;;;;;;;3.97;3.20;;;13.30;99.90;;;;;;5083629;28;20181;-74
2024/02/14 10:05:50;;;;;;;3.23;2.93;;;13.20;99.90;;;;;;5086902;28;20170;-74
2024/02/14 10:08:15;;;;;;;4.73;3.07;;;13.10;99.90;;;;;;5073233;28;20163;-74
2024/02/14 10:10:41;;;;;;;5.37;3.07;;;13.00;99.90;;;;;;5072791;28;20206;-74
2024/02/14 10:13:07;;;;;;;5.00;3.10;;;12.90;99.90;;;;;;5072993;28;20220;-73
2024/02/14 10:15:33;;;;;;;3.83;3.00;;;12.90;99.90;;;;;;5072863;28;20169;-74
2024/02/14 10:18:00;;;;;;;3.27;2.97;;;12.90;99.90;;;;;;5072993;28;20643;-72
2024/02/14 10:20:26;;;;;;;3.80;3.50;;;13.00;99.90;;;;;;5086360;28;20197;-73
2024/02/14 10:23:00;;;;;;;6.73;3.17;;;13.00;99.90;;;;;;5093058;28;20634;-73
2024/02/14 10:25:25;;;;;;;4.87;3.57;;;13.00;99.90;;;;;;5093283;28;20526;-74
2024/02/14 10:27:51;;;;;;;3.40;3.10;;;13.00;99.90;;;;;;5092689;28;20184;-73
2024/02/14 10:30:17;;;;;;;3.73;3.40;;;13.00;99.90;;;;;;5092603;28;20204;-73
2024/02/14 10:32:48;;;;;;;5.27;3.40;;;13.10;99.90;;;;;;5092552;28;20218;-73
2024/02/14 10:35:14;;;;;;;4.13;2.90;;;13.10;99.90;;;;;;5074975;28;20255;-74
2024/02/14 10:37:40;;;;;;;3.63;3.30;;;13.10;99.90;;;;;;5072500;28;20253;-74
2024/02/14 10:40:08;;;;;;;7.23;3.30;;;13.00;99.90;;;;;;5072152;28;20231;-74
2024/02/14 10:42:34;;;;;;;2.90;2.70;;;13.00;99.90;;;;;;5072039;28;20178;-74
2024/02/14 10:45:01;;;;;;;4.07;3.10;;;12.90;99.90;;;;;;5079431;28;20169;-74
2024/02/14 10:47:35;;;;;;;4.97;3.07;;;12.90;99.90;;;;;;5092407;28;20169;-74
2024/02/14 10:50:05;;;;;;;3.00;2.80;;;12.90;99.90;;;;;;5092339;28;20193;-74
2024/02/14 10:52:35;;;;;;;4.00;3.20;;;12.90;99.90;;;;;;5092638;28;20249;-75
2024/02/14 10:55:05;;;;;;;3.90;2.83;;;12.70;99.90;;;;;;5092939;28;20192;-74
2024/02/14 10:57:32;;;;;;;3.57;3.27;;;12.60;99.90;;;;;;5079580;28;20555;-73
2024/02/14 11:00:01;;;;;;;3.23;2.93;;;12.40;99.90;;;;;;5072152;28;20174;-74
2024/02/14 11:02:30;;;;;;;4.20;3.57;;;12.40;99.90;;;;;;5075040;28;20182;-74
2024/02/14 11:04:56;;;;;;;6.97;3.60;;;12.30;99.90;;;;;;5076527;28;20174;-74
2024/02/14 11:07:24;;;;;;;5.13;3.30;;;12.20;99.90;;;;;;5054324;28;20554;-74
2024/02/14 11:10:07;;;;;;;3.63;3.37;;;12.10;99.90;;;;;;5072081;28;20241;-74
2024/02/14 11:12:38;;;;;;;4.70;3.40;;;12.10;99.90;;;;;;5071955;28;20208;-74
2024/02/14 11:15:30;;;;;;;5.50;3.50;;;12.10;99.90;;;;;;5072551;28;20177;-75
2024/02/14 11:18:04;;;;;;;6.90;3.57;;;12.20;99.90;;;;;;5073429;28;20182;-74
2024/02/14 11:20:35;;;;;;;7.37;3.50;;;12.30;99.90;;;;;;5054219;28;20255;-74
2024/02/14 11:23:03;;;;;;;3.87;3.37;;;12.40;99.90;;;;;;5071938;28;20515;-74
2024/02/14 11:25:36;;;;;;;4.50;3.00;;;12.60;99.90;;;;;;5072202;28;20175;-73
2024/02/14 11:28:23;;;;;;;3.37;3.07;;;12.70;99.90;;;;;;5071806;28;20219;-74
2024/02/14 11:30:49;;;;;;;3.53;2.80;;;12.70;99.90;;;;;;5084693;28;20227;-74
2024/02/14 11:33:15;;;;;;;3.17;2.97;;;12.80;99.90;;;;;;5092325;28;20165;-73
2024/02/14 11:35:41;;;;;;;3.17;2.87;;;13.00;99.90;;;;;;5092284;28;20174;-73
2024/02/14 11:38:09;;;;;;;4.37;2.90;;;13.20;99.90;;;;;;5092502;28;20168;-73
2024/02/14 11:40:39;;;;;;;2.87;2.60;;;13.20;99.90;;;;;;5091676;28;20205;-73
2024/02/14 11:43:05;;;;;;;3.00;2.70;;;13.30;99.90;;;;;;5092199;28;20169;-73
2024/02/14 11:45:31;;;;;;;2.53;2.40;;;13.50;99.90;;;;;;5078478;28;20185;-73
2024/02/14 11:47:56;;;;;;;2.50;2.40;;;13.40;99.90;;;;;;5072094;28;20178;-74
2024/02/14 11:50:22;;;;;;;2.90;2.70;;;13.40;99.90;;;;;;5071215;28;20209;-74
2024/02/14 11:52:48;;;;;;;3.00;2.70;;;13.20;99.90;;;;;;5071256;28;20170;-74
2024/02/14 11:55:17;;;;;;;3.07;2.80;;;13.10;99.90;;;;;;5054823;28;20181;-74
2024/02/14 11:57:43;;;;;;;3.07;2.87;;;13.10;99.90;;;;;;5091627;28;20654;-73
2024/02/14 12:00:09;;;;;;;3.37;2.97;;;13.10;99.90;;;;;;5091720;28;20215;-74
2024/02/14 12:02:35;;;;;;;3.00;2.80;;;13.20;99.90;;;;;;5091358;28;20604;-74
2024/02/14 12:05:04;;;;;;;3.50;2.90;;;13.20;99.90;;;;;;5092490;28;20252;-73
2024/02/14 12:07:30;;;;;;;3.13;2.73;;;13.30;99.90;;;;;;5091563;28;20173;-73
2024/02/14 12:09:56;;;;;;;2.90;2.60;;;13.40;99.90;;;;;;5089751;28;20570;-73
2024/02/14 12:12:22;;;;;;;2.90;2.70;;;13.40;99.90;;;;;;5072522;28;20176;-73
2024/02/14 12:14:52;;;;;;;4.23;2.70;;;13.50;99.90;;;;;;5071424;28;20674;-73
2024/02/14 12:17:22;;;;;;;4.43;2.70;;;13.60;99.90;;;;;;5071517;28;20158;-74
2024/02/14 12:19:48;;;;;;;3.57;2.70;;;13.60;99.90;;;;;;5071170;28;20190;-73
2024/02/14 12:22:17;;;;;;;3.67;2.50;;;13.60;99.90;;;;;;5072121;28;20265;-73
2024/02/14 12:24:47;;;;;;;3.00;2.73;;;13.60;99.90;;;;;;5072686;28;20200;-73
2024/02/14 12:27:16;;;;;;;3.20;2.40;;;13.70;99.90;;;;;;5075458;28;20178;-74
2024/02/14 12:29:45;;;;;;;2.50;2.30;;;13.60;99.90;;;;;;5071194;28;20290;-74
2024/02/14 12:32:11;;;;;;;3.43;2.40;;;13.60;99.90;;;;;;5084085;28;20166;-73
2024/02/14 12:34:37;;;;;;;2.70;2.50;;;13.60;99.90;;;;;;5090681;28;20166;-74
2024/02/14 12:37:03;;;;;;;4.60;2.80;;;13.70;99.90;;;;;;5091234;28;20174;-74
2024/02/14 12:39:29;;;;;;;3.00;2.80;;;13.60;99.90;;;;;;5091245;28;20200;-73
2024/02/14 12:41:55;;;;;;;2.90;2.70;;;13.50;99.90;;;;;;5088805;28;20197;-73
2024/02/14 12:44:21;;;;;;;2.97;2.87;;;13.40;99.90;;;;;;5091592;28;20544;-73